NCAR-RAP Real-Time Weather Data

Output produced by METARs form (01 December 2020  17:44 UTC)
found at http://weather.rap.ucar.edu/surface/
 
KABR 011653Z AUTO 17007KT 10SM CLR 00/M07 A2996 RMK AO2 SLP162 T00001072
KABR 011553Z AUTO 00000KT 10SM CLR M03/M08 A2995 RMK AO2 SLP158 T10331083
KABR 011453Z AUTO 00000KT 10SM CLR M06/M09 A2993 RMK AO2 SLP155 T10561094 51018
KABR 011353Z AUTO 08003KT 10SM CLR M08/M12 A2992 RMK AO2 SLP150 T10831122
KABR 011253Z AUTO 33005KT 10SM CLR M08/M12 A2990 RMK AO2 SLP147 T10781117
KABR 011153Z AUTO 19004KT 10SM CLR M08/M11 A2988 RMK AO2 SLP136 T10781111 11044 21089 55006
KABR 011053Z AUTO 16006KT 10SM CLR M07/M11 A2987 RMK AO2 SLP132 T10721111
KABR 010953Z AUTO 15005KT 10SM CLR M07/M11 A2988 RMK AO2 SLP133 T10721106
KABR 010853Z AUTO 17003KT 10SM CLR M07/M11 A2990 RMK AO2 SLP138 T10671106 58003
KABR 010753Z AUTO 15003KT 10SM CLR M07/M11 A2990 RMK AO2 SLP142 T10671106
KABR 010653Z AUTO 17006KT 10SM CLR M08/M12 A2990 RMK AO2 SLP142 T10781117
KABR 010553Z AUTO 18006KT 10SM CLR M04/M10 A2991 RMK AO2 SLP143 T10441100 10000 21061 400561150 56009
KABR 010453Z AUTO 18009KT 10SM CLR M03/M09 A2991 RMK AO2 SLP147 T10331094
KABR 010353Z AUTO 16008KT 10SM CLR M04/M09 A2992 RMK AO2 SLP150 T10391094
KABR 010253Z AUTO 17010KT 10SM CLR M02/M09 A2993 RMK AO2 SLP157 T10221094 56014